Terminal Aerodrome Forecast
Issued by NWS

Home | Current Version | Previous Version | Text Only | Print | Product List | Glossary On
Versions: 1 2 3 4 5 6 7 8 9 10 11 12 13 14 15 16
000
FTUS42 KMHX 230538
TAFISO
TAF
KISO 230538Z 2306/2406 21005KT P6SM SKC
     FM230900 22004KT 5SM BR SCT010
     FM231300 23008G16KT P6SM BKN150
     FM232000 22006KT P6SM VCTS SCT050CB
      AMD LTD TO CLD VIS AND WIND=

USA.gov is the U.S. government's official web portal to all federal, state and local government web resources and services.